sensor_id;sensor_type;location;lat;lon;timestamp;P1;durP1;ratioP1;P2;durP2;ratioP2
55300;SDS011;58302;51.446;-2.000;2023-02-15T00:01:35;34.53;;;19.10;;
55300;SDS011;58302;51.446;-2.000;2023-02-15T00:04:02;34.78;;;20.17;;
55300;SDS011;58302;51.446;-2.000;2023-02-15T00:06:28;35.75;;;20.48;;
55300;SDS011;58302;51.446;-2.000;2023-02-15T00:08:55;39.15;;;20.40;;
55300;SDS011;58302;51.446;-2.000;2023-02-15T00:11:21;36.55;;;21.45;;
55300;SDS011;58302;51.446;-2.000;2023-02-15T00:14:06;38.05;;;20.80;;
55300;SDS011;58302;51.446;-2.000;2023-02-15T00:16:33;34.15;;;22.70;;
55300;SDS011;58302;51.446;-2.000;2023-02-15T00:19:00;39.58;;;22.52;;
55300;SDS011;58302;51.446;-2.000;2023-02-15T00:21:28;38.33;;;22.20;;
55300;SDS011;58302;51.446;-2.000;2023-02-15T00:23:56;42.42;;;22.80;;
55300;SDS011;58302;51.446;-2.000;2023-02-15T00:26:23;33.33;;;21.58;;
55300;SDS011;58302;51.446;-2.000;2023-02-15T00:28:49;38.30;;;22.00;;
55300;SDS011;58302;51.446;-2.000;2023-02-15T00:31:15;41.22;;;22.95;;
55300;SDS011;58302;51.446;-2.000;2023-02-15T00:33:41;41.88;;;22.63;;
55300;SDS011;58302;51.446;-2.000;2023-02-15T00:36:07;36.40;;;21.65;;
55300;SDS011;58302;51.446;-2.000;2023-02-15T00:38:35;45.78;;;25.13;;
55300;SDS011;58302;51.446;-2.000;2023-02-15T00:41:03;39.58;;;25.02;;
55300;SDS011;58302;51.446;-2.000;2023-02-15T00:43:31;46.90;;;24.60;;
55300;SDS011;58302;51.446;-2.000;2023-02-15T00:45:58;40.10;;;24.50;;
55300;SDS011;58302;51.446;-2.000;2023-02-15T00:48:25;43.80;;;24.48;;
55300;SDS011;58302;51.446;-2.000;2023-02-15T00:50:53;43.13;;;23.30;;
55300;SDS011;58302;51.446;-2.000;2023-02-15T00:53:20;46.13;;;25.58;;
55300;SDS011;58302;51.446;-2.000;2023-02-15T00:55:47;44.92;;;22.63;;
55300;SDS011;58302;51.446;-2.000;2023-02-15T00:58:13;42.88;;;23.10;;
55300;SDS011;58302;51.446;-2.000;2023-02-15T01:00:41;40.90;;;22.95;;
55300;SDS011;58302;51.446;-2.000;2023-02-15T01:03:09;42.05;;;24.13;;
55300;SDS011;58302;51.446;-2.000;2023-02-15T01:05:36;40.60;;;21.52;;
55300;SDS011;58302;51.446;-2.000;2023-02-15T01:08:02;38.05;;;23.50;;
55300;SDS011;58302;51.446;-2.000;2023-02-15T01:10:28;49.13;;;25.45;;
55300;SDS011;58302;51.446;-2.000;2023-02-15T01:17:46;46.67;;;26.85;;
55300;SDS011;58302;51.446;-2.000;2023-02-15T01:20:17;45.78;;;25.65;;
55300;SDS011;58302;51.446;-2.000;2023-02-15T01:22:44;50.10;;;26.52;;
55300;SDS011;58302;51.446;-2.000;2023-02-15T01:25:10;45.58;;;26.85;;
55300;SDS011;58302;51.446;-2.000;2023-02-15T01:27:36;54.65;;;28.58;;
55300;SDS011;58302;51.446;-2.000;2023-02-15T01:30:02;52.13;;;26.75;;
55300;SDS011;58302;51.446;-2.000;2023-02-15T01:32:30;52.53;;;27.63;;
55300;SDS011;58302;51.446;-2.000;2023-02-15T01:34:56;48.35;;;26.20;;
55300;SDS011;58302;51.446;-2.000;2023-02-15T01:37:22;48.33;;;27.35;;
55300;SDS011;58302;51.446;-2.000;2023-02-15T01:39:48;52.53;;;28.23;;
55300;SDS011;58302;51.446;-2.000;2023-02-15T01:42:14;53.03;;;27.58;;
55300;SDS011;58302;51.446;-2.000;2023-02-15T01:44:55;55.60;;;30.38;;
55300;SDS011;58302;51.446;-2.000;2023-02-15T01:50:16;55.03;;;30.95;;
55300;SDS011;58302;51.446;-2.000;2023-02-15T01:53:03;54.60;;;29.73;;
55300;SDS011;58302;51.446;-2.000;2023-02-15T01:55:37;51.65;;;28.80;;
55300;SDS011;58302;51.446;-2.000;2023-02-15T01:58:18;54.75;;;29.90;;
55300;SDS011;58302;51.446;-2.000;2023-02-15T02:00:46;55.50;;;29.75;;
55300;SDS011;58302;51.446;-2.000;2023-02-15T02:03:12;57.78;;;30.40;;
55300;SDS011;58302;51.446;-2.000;2023-02-15T02:05:38;52.80;;;28.63;;
55300;SDS011;58302;51.446;-2.000;2023-02-15T02:08:05;56.22;;;31.75;;
55300;SDS011;58302;51.446;-2.000;2023-02-15T02:10:32;57.83;;;32.72;;
55300;SDS011;58302;51.446;-2.000;2023-02-15T02:13:00;61.40;;;31.73;;
55300;SDS011;58302;51.446;-2.000;2023-02-15T02:29:54;53.35;;;28.98;;
55300;SDS011;58302;51.446;-2.000;2023-02-15T02:46:26;60.33;;;33.97;;
55300;SDS011;58302;51.446;-2.000;2023-02-15T02:48:56;59.40;;;32.03;;
55300;SDS011;58302;51.446;-2.000;2023-02-15T02:51:22;53.42;;;31.25;;
55300;SDS011;58302;51.446;-2.000;2023-02-15T02:53:50;65.15;;;34.42;;
55300;SDS011;58302;51.446;-2.000;2023-02-15T02:56:24;57.83;;;32.17;;
55300;SDS011;58302;51.446;-2.000;2023-02-15T02:59:08;62.35;;;35.00;;
55300;SDS011;58302;51.446;-2.000;2023-02-15T03:01:43;63.28;;;34.85;;
55300;SDS011;58302;51.446;-2.000;2023-02-15T03:04:15;63.90;;;32.20;;
55300;SDS011;58302;51.446;-2.000;2023-02-15T03:06:52;62.45;;;34.47;;
55300;SDS011;58302;51.446;-2.000;2023-02-15T03:09:38;64.82;;;34.67;;
55300;SDS011;58302;51.446;-2.000;2023-02-15T03:12:10;65.20;;;34.47;;
55300;SDS011;58302;51.446;-2.000;2023-02-15T03:14:44;69.30;;;37.42;;
55300;SDS011;58302;51.446;-2.000;2023-02-15T03:17:13;71.38;;;35.97;;
55300;SDS011;58302;51.446;-2.000;2023-02-15T03:19:42;73.22;;;37.88;;
55300;SDS011;58302;51.446;-2.000;2023-02-15T03:22:13;68.75;;;37.30;;
55300;SDS011;58302;51.446;-2.000;2023-02-15T03:27:15;70.35;;;37.20;;
55300;SDS011;58302;51.446;-2.000;2023-02-15T03:29:46;76.65;;;39.60;;
55300;SDS011;58302;51.446;-2.000;2023-02-15T03:32:17;82.10;;;43.22;;
55300;SDS011;58302;51.446;-2.000;2023-02-15T03:34:44;81.57;;;42.80;;
55300;SDS011;58302;51.446;-2.000;2023-02-15T03:37:15;82.95;;;42.17;;
55300;SDS011;58302;51.446;-2.000;2023-02-15T03:39:52;91.18;;;42.40;;
55300;SDS011;58302;51.446;-2.000;2023-02-15T03:45:08;94.00;;;46.08;;
55300;SDS011;58302;51.446;-2.000;2023-02-15T03:47:41;93.88;;;48.30;;
55300;SDS011;58302;51.446;-2.000;2023-02-15T03:50:11;88.25;;;45.00;;
55300;SDS011;58302;51.446;-2.000;2023-02-15T03:53:00;93.60;;;42.30;;
55300;SDS011;58302;51.446;-2.000;2023-02-15T03:55:30;99.95;;;47.25;;
55300;SDS011;58302;51.446;-2.000;2023-02-15T03:57:56;91.32;;;45.88;;
55300;SDS011;58302;51.446;-2.000;2023-02-15T04:00:41;72.07;;;37.70;;
55300;SDS011;58302;51.446;-2.000;2023-02-15T04:03:35;90.28;;;46.03;;
55300;SDS011;58302;51.446;-2.000;2023-02-15T04:06:05;92.75;;;44.85;;
55300;SDS011;58302;51.446;-2.000;2023-02-15T04:08:31;81.72;;;44.33;;
55300;SDS011;58302;51.446;-2.000;2023-02-15T04:11:15;68.63;;;34.92;;
55300;SDS011;58302;51.446;-2.000;2023-02-15T04:13:41;92.60;;;48.97;;
55300;SDS011;58302;51.446;-2.000;2023-02-15T04:16:07;101.45;;;50.40;;
55300;SDS011;58302;51.446;-2.000;2023-02-15T04:18:38;115.95;;;54.25;;
55300;SDS011;58302;51.446;-2.000;2023-02-15T04:21:25;97.47;;;48.95;;
55300;SDS011;58302;51.446;-2.000;2023-02-15T04:24:11;97.32;;;48.30;;
55300;SDS011;58302;51.446;-2.000;2023-02-15T04:26:57;104.60;;;47.67;;
55300;SDS011;58302;51.446;-2.000;2023-02-15T04:29:24;107.18;;;51.08;;
55300;SDS011;58302;51.446;-2.000;2023-02-15T04:31:51;120.82;;;57.47;;
55300;SDS011;58302;51.446;-2.000;2023-02-15T04:34:18;111.40;;;53.33;;
55300;SDS011;58302;51.446;-2.000;2023-02-15T04:36:44;116.03;;;55.05;;
55300;SDS011;58302;51.446;-2.000;2023-02-15T04:39:12;118.68;;;57.28;;
55300;SDS011;58302;51.446;-2.000;2023-02-15T04:41:39;133.48;;;57.17;;
55300;SDS011;58302;51.446;-2.000;2023-02-15T04:44:05;142.85;;;59.70;;
55300;SDS011;58302;51.446;-2.000;2023-02-15T04:46:31;157.82;;;63.75;;
55300;SDS011;58302;51.446;-2.000;2023-02-15T04:48:57;152.90;;;62.58;;
55300;SDS011;58302;51.446;-2.000;2023-02-15T04:51:23;153.85;;;68.45;;
55300;SDS011;58302;51.446;-2.000;2023-02-15T04:53:50;133.43;;;61.80;;
55300;SDS011;58302;51.446;-2.000;2023-02-15T04:56:18;142.80;;;60.38;;
55300;SDS011;58302;51.446;-2.000;2023-02-15T04:58:45;140.10;;;63.63;;
55300;SDS011;58302;51.446;-2.000;2023-02-15T05:01:11;146.18;;;66.00;;
55300;SDS011;58302;51.446;-2.000;2023-02-15T05:03:37;152.43;;;65.35;;
55300;SDS011;58302;51.446;-2.000;2023-02-15T05:06:04;176.45;;;72.38;;
55300;SDS011;58302;51.446;-2.000;2023-02-15T05:08:30;197.27;;;78.05;;
55300;SDS011;58302;51.446;-2.000;2023-02-15T05:10:56;203.88;;;81.03;;
55300;SDS011;58302;51.446;-2.000;2023-02-15T05:13:22;206.98;;;82.40;;
55300;SDS011;58302;51.446;-2.000;2023-02-15T05:18:17;206.52;;;85.38;;
55300;SDS011;58302;51.446;-2.000;2023-02-15T05:20:43;188.27;;;80.13;;
55300;SDS011;58302;51.446;-2.000;2023-02-15T05:23:10;195.70;;;80.72;;
55300;SDS011;58302;51.446;-2.000;2023-02-15T05:25:36;197.82;;;84.60;;
55300;SDS011;58302;51.446;-2.000;2023-02-15T05:28:21;182.15;;;74.85;;
55300;SDS011;58302;51.446;-2.000;2023-02-15T05:31:10;187.25;;;79.90;;
55300;SDS011;58302;51.446;-2.000;2023-02-15T05:33:37;187.38;;;76.60;;
55300;SDS011;58302;51.446;-2.000;2023-02-15T05:36:03;192.57;;;79.07;;
55300;SDS011;58302;51.446;-2.000;2023-02-15T05:38:31;174.48;;;76.55;;
55300;SDS011;58302;51.446;-2.000;2023-02-15T05:40:57;168.77;;;73.45;;
55300;SDS011;58302;51.446;-2.000;2023-02-15T05:43:23;173.45;;;76.13;;
55300;SDS011;58302;51.446;-2.000;2023-02-15T05:45:50;197.30;;;81.85;;
55300;SDS011;58302;51.446;-2.000;2023-02-15T05:48:18;216.63;;;88.43;;
55300;SDS011;58302;51.446;-2.000;2023-02-15T05:50:45;249.85;;;99.15;;
55300;SDS011;58302;51.446;-2.000;2023-02-15T05:53:12;266.92;;;96.85;;
55300;SDS011;58302;51.446;-2.000;2023-02-15T05:55:38;246.85;;;95.53;;
55300;SDS011;58302;51.446;-2.000;2023-02-15T05:58:05;216.43;;;90.03;;
55300;SDS011;58302;51.446;-2.000;2023-02-15T06:00:33;218.60;;;88.45;;
55300;SDS011;58302;51.446;-2.000;2023-02-15T06:03:00;203.98;;;86.72;;
55300;SDS011;58302;51.446;-2.000;2023-02-15T06:05:26;234.77;;;95.70;;
55300;SDS011;58302;51.446;-2.000;2023-02-15T06:07:52;193.93;;;83.78;;
55300;SDS011;58302;51.446;-2.000;2023-02-15T06:10:18;193.73;;;78.40;;
55300;SDS011;58302;51.446;-2.000;2023-02-15T06:12:44;158.07;;;74.10;;
55300;SDS011;58302;51.446;-2.000;2023-02-15T06:15:10;164.23;;;72.88;;
55300;SDS011;58302;51.446;-2.000;2023-02-15T06:17:36;144.55;;;63.20;;
55300;SDS011;58302;51.446;-2.000;2023-02-15T06:20:02;151.43;;;68.32;;
55300;SDS011;58302;51.446;-2.000;2023-02-15T06:22:29;214.40;;;86.43;;
55300;SDS011;58302;51.446;-2.000;2023-02-15T06:24:55;191.52;;;82.75;;
55300;SDS011;58302;51.446;-2.000;2023-02-15T06:27:21;185.02;;;77.88;;
55300;SDS011;58302;51.446;-2.000;2023-02-15T06:29:47;242.05;;;94.10;;
55300;SDS011;58302;51.446;-2.000;2023-02-15T06:32:13;256.77;;;100.70;;
55300;SDS011;58302;51.446;-2.000;2023-02-15T06:34:39;242.57;;;97.07;;
55300;SDS011;58302;51.446;-2.000;2023-02-15T06:37:04;208.15;;;86.63;;
55300;SDS011;58302;51.446;-2.000;2023-02-15T06:39:31;237.25;;;95.93;;
55300;SDS011;58302;51.446;-2.000;2023-02-15T06:41:57;226.43;;;92.43;;
55300;SDS011;58302;51.446;-2.000;2023-02-15T06:44:23;208.85;;;84.95;;
55300;SDS011;58302;51.446;-2.000;2023-02-15T06:46:49;224.02;;;86.60;;
55300;SDS011;58302;51.446;-2.000;2023-02-15T06:49:15;222.13;;;87.65;;
55300;SDS011;58302;51.446;-2.000;2023-02-15T06:51:41;230.95;;;91.85;;
55300;SDS011;58302;51.446;-2.000;2023-02-15T06:54:07;210.27;;;79.18;;
55300;SDS011;58302;51.446;-2.000;2023-02-15T06:56:33;245.73;;;94.32;;
55300;SDS011;58302;51.446;-2.000;2023-02-15T06:58:59;264.98;;;102.50;;
55300;SDS011;58302;51.446;-2.000;2023-02-15T07:01:25;262.35;;;104.65;;
55300;SDS011;58302;51.446;-2.000;2023-02-15T07:03:51;231.38;;;94.30;;
55300;SDS011;58302;51.446;-2.000;2023-02-15T07:06:17;240.43;;;95.72;;
55300;SDS011;58302;51.446;-2.000;2023-02-15T07:08:43;252.38;;;96.95;;
55300;SDS011;58302;51.446;-2.000;2023-02-15T07:11:09;237.93;;;93.13;;
55300;SDS011;58302;51.446;-2.000;2023-02-15T07:13:53;237.20;;;88.75;;
55300;SDS011;58302;51.446;-2.000;2023-02-15T07:16:19;222.63;;;85.22;;
55300;SDS011;58302;51.446;-2.000;2023-02-15T07:18:46;212.25;;;87.25;;
55300;SDS011;58302;51.446;-2.000;2023-02-15T07:21:12;212.15;;;79.32;;
55300;SDS011;58302;51.446;-2.000;2023-02-15T07:23:38;203.85;;;83.13;;
55300;SDS011;58302;51.446;-2.000;2023-02-15T07:26:05;210.85;;;88.28;;
55300;SDS011;58302;51.446;-2.000;2023-02-15T07:28:33;213.52;;;85.60;;
55300;SDS011;58302;51.446;-2.000;2023-02-15T07:31:03;233.75;;;90.43;;
55300;SDS011;58302;51.446;-2.000;2023-02-15T07:33:33;190.13;;;75.25;;
55300;SDS011;58302;51.446;-2.000;2023-02-15T07:36:01;214.65;;;84.50;;
55300;SDS011;58302;51.446;-2.000;2023-02-15T07:38:33;219.95;;;86.90;;
55300;SDS011;58302;51.446;-2.000;2023-02-15T07:41:01;192.40;;;79.38;;
55300;SDS011;58302;51.446;-2.000;2023-02-15T07:43:29;174.63;;;69.13;;
55300;SDS011;58302;51.446;-2.000;2023-02-15T07:45:59;155.48;;;63.47;;
55300;SDS011;58302;51.446;-2.000;2023-02-15T07:48:29;151.82;;;62.92;;
55300;SDS011;58302;51.446;-2.000;2023-02-15T07:51:02;149.07;;;60.63;;
55300;SDS011;58302;51.446;-2.000;2023-02-15T07:53:30;128.48;;;56.13;;
55300;SDS011;58302;51.446;-2.000;2023-02-15T07:56:00;126.22;;;54.70;;
55300;SDS011;58302;51.446;-2.000;2023-02-15T07:58:28;114.18;;;53.45;;
55300;SDS011;58302;51.446;-2.000;2023-02-15T08:01:13;83.30;;;38.00;;
55300;SDS011;58302;51.446;-2.000;2023-02-15T08:03:40;92.15;;;44.85;;
55300;SDS011;58302;51.446;-2.000;2023-02-15T08:06:06;90.13;;;46.35;;
55300;SDS011;58302;51.446;-2.000;2023-02-15T08:08:33;81.38;;;41.20;;
55300;SDS011;58302;51.446;-2.000;2023-02-15T08:11:05;77.25;;;41.20;;
55300;SDS011;58302;51.446;-2.000;2023-02-15T08:16:31;68.95;;;35.83;;
55300;SDS011;58302;51.446;-2.000;2023-02-15T08:18:58;64.07;;;34.08;;
55300;SDS011;58302;51.446;-2.000;2023-02-15T08:21:45;65.97;;;33.15;;
55300;SDS011;58302;51.446;-2.000;2023-02-15T08:24:15;58.78;;;33.47;;
55300;SDS011;58302;51.446;-2.000;2023-02-15T08:26:42;74.43;;;36.15;;
55300;SDS011;58302;51.446;-2.000;2023-02-15T08:29:10;59.13;;;33.83;;
55300;SDS011;58302;51.446;-2.000;2023-02-15T08:31:36;64.13;;;35.10;;
55300;SDS011;58302;51.446;-2.000;2023-02-15T08:34:03;49.75;;;27.83;;
55300;SDS011;58302;51.446;-2.000;2023-02-15T08:36:30;57.58;;;31.70;;
55300;SDS011;58302;51.446;-2.000;2023-02-15T08:38:57;50.78;;;28.45;;
55300;SDS011;58302;51.446;-2.000;2023-02-15T08:41:25;47.75;;;28.08;;
55300;SDS011;58302;51.446;-2.000;2023-02-15T08:43:54;45.55;;;26.10;;
55300;SDS011;58302;51.446;-2.000;2023-02-15T08:46:21;52.92;;;29.10;;
55300;SDS011;58302;51.446;-2.000;2023-02-15T08:48:50;46.05;;;26.65;;
55300;SDS011;58302;51.446;-2.000;2023-02-15T08:51:21;34.63;;;23.02;;
55300;SDS011;58302;51.446;-2.000;2023-02-15T08:53:49;33.58;;;19.40;;
55300;SDS011;58302;51.446;-2.000;2023-02-15T08:56:18;39.05;;;21.60;;
55300;SDS011;58302;51.446;-2.000;2023-02-15T08:58:46;34.63;;;19.30;;
55300;SDS011;58302;51.446;-2.000;2023-02-15T09:01:14;34.03;;;21.75;;
55300;SDS011;58302;51.446;-2.000;2023-02-15T09:03:46;33.80;;;19.88;;
55300;SDS011;58302;51.446;-2.000;2023-02-15T09:06:15;37.13;;;20.55;;
55300;SDS011;58302;51.446;-2.000;2023-02-15T09:08:42;33.80;;;19.83;;
55300;SDS011;58302;51.446;-2.000;2023-02-15T09:11:10;27.50;;;18.88;;
55300;SDS011;58302;51.446;-2.000;2023-02-15T09:13:38;31.42;;;19.42;;
55300;SDS011;58302;51.446;-2.000;2023-02-15T09:16:06;29.58;;;18.40;;
55300;SDS011;58302;51.446;-2.000;2023-02-15T09:18:34;30.17;;;19.20;;
55300;SDS011;58302;51.446;-2.000;2023-02-15T09:21:03;29.92;;;19.13;;
55300;SDS011;58302;51.446;-2.000;2023-02-15T09:23:34;27.15;;;18.83;;
55300;SDS011;58302;51.446;-2.000;2023-02-15T09:26:04;29.48;;;17.88;;
55300;SDS011;58302;51.446;-2.000;2023-02-15T09:28:32;24.80;;;15.90;;
55300;SDS011;58302;51.446;-2.000;2023-02-15T09:31:05;28.02;;;17.60;;
55300;SDS011;58302;51.446;-2.000;2023-02-15T09:33:35;25.70;;;17.23;;
55300;SDS011;58302;51.446;-2.000;2023-02-15T09:36:03;27.58;;;18.42;;
55300;SDS011;58302;51.446;-2.000;2023-02-15T09:38:29;29.40;;;19.00;;
55300;SDS011;58302;51.446;-2.000;2023-02-15T09:41:21;33.00;;;17.15;;
55300;SDS011;58302;51.446;-2.000;2023-02-15T09:46:46;25.85;;;17.42;;
55300;SDS011;58302;51.446;-2.000;2023-02-15T09:49:34;27.55;;;16.77;;
55300;SDS011;58302;51.446;-2.000;2023-02-15T09:52:17;23.73;;;17.50;;
55300;SDS011;58302;51.446;-2.000;2023-02-15T10:00:38;28.15;;;18.92;;
55300;SDS011;58302;51.446;-2.000;2023-02-15T10:26:19;23.92;;;15.30;;
55300;SDS011;58302;51.446;-2.000;2023-02-15T10:31:51;25.02;;;15.68;;
55300;SDS011;58302;51.446;-2.000;2023-02-15T10:39:46;16.63;;;11.30;;
55300;SDS011;58302;51.446;-2.000;2023-02-15T10:45:01;20.52;;;13.43;;
55300;SDS011;58302;51.446;-2.000;2023-02-15T10:47:37;19.88;;;12.80;;
55300;SDS011;58302;51.446;-2.000;2023-02-15T11:01:30;24.55;;;16.17;;
55300;SDS011;58302;51.446;-2.000;2023-02-15T11:06:37;28.85;;;19.73;;
55300;SDS011;58302;51.446;-2.000;2023-02-15T11:09:11;23.67;;;16.60;;
55300;SDS011;58302;51.446;-2.000;2023-02-15T11:11:41;18.27;;;11.23;;
55300;SDS011;58302;51.446;-2.000;2023-02-15T11:17:06;25.40;;;12.43;;
55300;SDS011;58302;51.446;-2.000;2023-02-15T11:19:39;20.90;;;12.25;;
55300;SDS011;58302;51.446;-2.000;2023-02-15T11:22:14;19.15;;;12.20;;
55300;SDS011;58302;51.446;-2.000;2023-02-15T11:24:42;21.10;;;12.60;;
55300;SDS011;58302;51.446;-2.000;2023-02-15T11:27:21;19.27;;;14.05;;
55300;SDS011;58302;51.446;-2.000;2023-02-15T11:35:06;19.92;;;14.30;;
55300;SDS011;58302;51.446;-2.000;2023-02-15T11:40:03;22.48;;;14.27;;
55300;SDS011;58302;51.446;-2.000;2023-02-15T11:42:40;20.90;;;14.18;;
55300;SDS011;58302;51.446;-2.000;2023-02-15T11:45:14;21.25;;;14.63;;
55300;SDS011;58302;51.446;-2.000;2023-02-15T11:47:48;24.58;;;15.43;;
55300;SDS011;58302;51.446;-2.000;2023-02-15T11:50:15;17.33;;;12.30;;
55300;SDS011;58302;51.446;-2.000;2023-02-15T11:52:43;23.25;;;14.43;;
55300;SDS011;58302;51.446;-2.000;2023-02-15T11:55:12;18.13;;;12.13;;
55300;SDS011;58302;51.446;-2.000;2023-02-15T11:57:43;19.10;;;13.48;;
55300;SDS011;58302;51.446;-2.000;2023-02-15T12:00:15;18.63;;;12.82;;
55300;SDS011;58302;51.446;-2.000;2023-02-15T12:02:52;17.75;;;11.82;;
55300;SDS011;58302;51.446;-2.000;2023-02-15T12:05:20;16.38;;;11.35;;
55300;SDS011;58302;51.446;-2.000;2023-02-15T12:10:25;15.30;;;11.00;;
55300;SDS011;58302;51.446;-2.000;2023-02-15T12:15:34;18.45;;;11.70;;
55300;SDS011;58302;51.446;-2.000;2023-02-15T12:18:01;16.52;;;11.50;;
55300;SDS011;58302;51.446;-2.000;2023-02-15T12:20:31;17.35;;;11.43;;
55300;SDS011;58302;51.446;-2.000;2023-02-15T12:22:59;15.25;;;10.05;;
55300;SDS011;58302;51.446;-2.000;2023-02-15T12:25:41;14.02;;;8.98;;
55300;SDS011;58302;51.446;-2.000;2023-02-15T12:28:23;13.48;;;9.82;;
55300;SDS011;58302;51.446;-2.000;2023-02-15T12:30:50;13.63;;;9.10;;
55300;SDS011;58302;51.446;-2.000;2023-02-15T12:35:47;13.98;;;10.85;;
55300;SDS011;58302;51.446;-2.000;2023-02-15T12:40:41;14.85;;;8.30;;
55300;SDS011;58302;51.446;-2.000;2023-02-15T12:43:39;14.45;;;10.75;;
55300;SDS011;58302;51.446;-2.000;2023-02-15T12:46:22;17.88;;;8.20;;
55300;SDS011;58302;51.446;-2.000;2023-02-15T12:49:04;12.40;;;9.50;;
55300;SDS011;58302;51.446;-2.000;2023-02-15T12:51:43;16.00;;;9.95;;
55300;SDS011;58302;51.446;-2.000;2023-02-15T12:59:55;15.13;;;9.40;;
55300;SDS011;58302;51.446;-2.000;2023-02-15T13:02:25;13.32;;;9.35;;
55300;SDS011;58302;51.446;-2.000;2023-02-15T13:04:55;14.95;;;10.20;;
55300;SDS011;58302;51.446;-2.000;2023-02-15T13:07:24;13.70;;;9.35;;
55300;SDS011;58302;51.446;-2.000;2023-02-15T13:09:55;14.18;;;9.98;;
55300;SDS011;58302;51.446;-2.000;2023-02-15T13:12:25;12.00;;;9.63;;
55300;SDS011;58302;51.446;-2.000;2023-02-15T13:14:56;15.18;;;9.10;;
55300;SDS011;58302;51.446;-2.000;2023-02-15T13:17:26;13.80;;;9.02;;
55300;SDS011;58302;51.446;-2.000;2023-02-15T13:20:30;11.48;;;7.63;;
55300;SDS011;58302;51.446;-2.000;2023-02-15T13:22:50;13.73;;;8.85;;
55300;SDS011;58302;51.446;-2.000;2023-02-15T13:25:20;15.27;;;9.25;;
55300;SDS011;58302;51.446;-2.000;2023-02-15T13:27:50;15.95;;;9.45;;
55300;SDS011;58302;51.446;-2.000;2023-02-15T13:30:25;13.63;;;10.65;;
55300;SDS011;58302;51.446;-2.000;2023-02-15T13:32:58;12.27;;;8.80;;
55300;SDS011;58302;51.446;-2.000;2023-02-15T13:35:30;17.50;;;10.43;;
55300;SDS011;58302;51.446;-2.000;2023-02-15T13:40:55;12.48;;;8.80;;
55300;SDS011;58302;51.446;-2.000;2023-02-15T13:43:27;16.13;;;9.40;;
55300;SDS011;58302;51.446;-2.000;2023-02-15T13:51:21;13.80;;;8.43;;
55300;SDS011;58302;51.446;-2.000;2023-02-15T13:54:13;10.77;;;6.85;;
55300;SDS011;58302;51.446;-2.000;2023-02-15T13:56:48;15.57;;;10.60;;
55300;SDS011;58302;51.446;-2.000;2023-02-15T13:59:44;16.27;;;10.57;;
55300;SDS011;58302;51.446;-2.000;2023-02-15T14:02:49;14.88;;;7.95;;
55300;SDS011;58302;51.446;-2.000;2023-02-15T14:05:53;14.05;;;8.40;;
55300;SDS011;58302;51.446;-2.000;2023-02-15T14:16:15;20.38;;;10.48;;
55300;SDS011;58302;51.446;-2.000;2023-02-15T14:19:02;16.10;;;9.65;;
55300;SDS011;58302;51.446;-2.000;2023-02-15T14:21:49;15.15;;;8.75;;
55300;SDS011;58302;51.446;-2.000;2023-02-15T14:24:28;11.80;;;7.60;;
55300;SDS011;58302;51.446;-2.000;2023-02-15T14:32:23;14.32;;;8.60;;
55300;SDS011;58302;51.446;-2.000;2023-02-15T14:34:57;12.15;;;7.70;;
55300;SDS011;58302;51.446;-2.000;2023-02-15T14:54:09;12.63;;;7.10;;
55300;SDS011;58302;51.446;-2.000;2023-02-15T14:56:35;11.73;;;7.85;;
55300;SDS011;58302;51.446;-2.000;2023-02-15T14:59:12;15.65;;;8.90;;
55300;SDS011;58302;51.446;-2.000;2023-02-15T15:01:55;11.07;;;7.30;;
55300;SDS011;58302;51.446;-2.000;2023-02-15T15:04:27;11.07;;;6.20;;
55300;SDS011;58302;51.446;-2.000;2023-02-15T15:09:48;16.85;;;7.45;;
55300;SDS011;58302;51.446;-2.000;2023-02-15T15:14:51;23.20;;;8.27;;
55300;SDS011;58302;51.446;-2.000;2023-02-15T15:19:57;15.77;;;8.10;;
55300;SDS011;58302;51.446;-2.000;2023-02-15T15:22:24;15.98;;;8.27;;
55300;SDS011;58302;51.446;-2.000;2023-02-15T15:24:52;13.98;;;7.85;;
55300;SDS011;58302;51.446;-2.000;2023-02-15T15:49:39;17.85;;;7.57;;
55300;SDS011;58302;51.446;-2.000;2023-02-15T15:52:19;14.40;;;7.93;;
55300;SDS011;58302;51.446;-2.000;2023-02-15T15:54:48;22.17;;;9.05;;
55300;SDS011;58302;51.446;-2.000;2023-02-15T16:00:24;15.27;;;8.10;;
55300;SDS011;58302;51.446;-2.000;2023-02-15T16:03:17;15.20;;;7.53;;
55300;SDS011;58302;51.446;-2.000;2023-02-15T16:05:47;18.98;;;10.23;;
55300;SDS011;58302;51.446;-2.000;2023-02-15T16:08:28;14.75;;;7.40;;
55300;SDS011;58302;51.446;-2.000;2023-02-15T16:10:56;16.63;;;8.07;;
55300;SDS011;58302;51.446;-2.000;2023-02-15T16:13:23;12.43;;;7.50;;
55300;SDS011;58302;51.446;-2.000;2023-02-15T16:15:51;15.63;;;7.05;;
55300;SDS011;58302;51.446;-2.000;2023-02-15T16:18:21;16.90;;;7.82;;
55300;SDS011;58302;51.446;-2.000;2023-02-15T16:20:51;13.65;;;7.97;;
55300;SDS011;58302;51.446;-2.000;2023-02-15T16:28:58;20.30;;;8.93;;
55300;SDS011;58302;51.446;-2.000;2023-02-15T16:31:24;13.90;;;6.53;;
55300;SDS011;58302;51.446;-2.000;2023-02-15T16:33:53;13.98;;;7.20;;
55300;SDS011;58302;51.446;-2.000;2023-02-15T16:36:21;9.18;;;4.93;;
55300;SDS011;58302;51.446;-2.000;2023-02-15T16:41:16;8.52;;;3.80;;
55300;SDS011;58302;51.446;-2.000;2023-02-15T16:43:47;8.18;;;4.20;;
55300;SDS011;58302;51.446;-2.000;2023-02-15T16:46:15;5.45;;;3.72;;
55300;SDS011;58302;51.446;-2.000;2023-02-15T16:48:45;3.78;;;2.88;;
55300;SDS011;58302;51.446;-2.000;2023-02-15T16:51:20;2.75;;;1.45;;
55300;SDS011;58302;51.446;-2.000;2023-02-15T16:53:49;1.38;;;1.20;;
55300;SDS011;58302;51.446;-2.000;2023-02-15T16:56:15;1.45;;;1.20;;
55300;SDS011;58302;51.446;-2.000;2023-02-15T16:58:49;2.00;;;0.93;;
55300;SDS011;58302;51.446;-2.000;2023-02-15T17:01:19;3.63;;;1.83;;
55300;SDS011;58302;51.446;-2.000;2023-02-15T17:03:49;1.85;;;1.52;;
55300;SDS011;58302;51.446;-2.000;2023-02-15T17:06:23;1.75;;;1.65;;
55300;SDS011;58302;51.446;-2.000;2023-02-15T17:08:52;5.07;;;2.20;;
55300;SDS011;58302;51.446;-2.000;2023-02-15T17:11:41;2.33;;;1.80;;
55300;SDS011;58302;51.446;-2.000;2023-02-15T17:16:35;3.17;;;1.77;;
55300;SDS011;58302;51.446;-2.000;2023-02-15T17:19:07;3.80;;;2.60;;
55300;SDS011;58302;51.446;-2.000;2023-02-15T17:21:40;2.35;;;1.80;;
55300;SDS011;58302;51.446;-2.000;2023-02-15T17:24:15;2.30;;;1.58;;
55300;SDS011;58302;51.446;-2.000;2023-02-15T17:26:49;4.32;;;2.03;;
55300;SDS011;58302;51.446;-2.000;2023-02-15T17:29:28;4.20;;;2.55;;
55300;SDS011;58302;51.446;-2.000;2023-02-15T17:32:03;2.90;;;2.30;;
55300;SDS011;58302;51.446;-2.000;2023-02-15T17:37:32;4.00;;;2.08;;
55300;SDS011;58302;51.446;-2.000;2023-02-15T17:42:56;3.45;;;2.50;;
55300;SDS011;58302;51.446;-2.000;2023-02-15T17:45:24;3.95;;;2.67;;
55300;SDS011;58302;51.446;-2.000;2023-02-15T17:47:52;2.90;;;2.40;;
55300;SDS011;58302;51.446;-2.000;2023-02-15T17:50:20;5.40;;;3.85;;
55300;SDS011;58302;51.446;-2.000;2023-02-15T17:52:48;5.78;;;4.70;;
55300;SDS011;58302;51.446;-2.000;2023-02-15T17:55:16;6.97;;;4.47;;
55300;SDS011;58302;51.446;-2.000;2023-02-15T17:58:00;4.78;;;4.07;;
55300;SDS011;58302;51.446;-2.000;2023-02-15T18:00:29;7.60;;;4.18;;
55300;SDS011;58302;51.446;-2.000;2023-02-15T18:03:15;5.97;;;4.72;;
55300;SDS011;58302;51.446;-2.000;2023-02-15T18:06:01;7.13;;;4.72;;
55300;SDS011;58302;51.446;-2.000;2023-02-15T18:08:45;4.93;;;4.07;;
55300;SDS011;58302;51.446;-2.000;2023-02-15T18:11:29;6.38;;;4.22;;